createdAt,value
2019-05-19T00:00:38.110Z,8.80
2019-05-19T00:03:05.622Z,9.50
2019-05-19T00:05:33.211Z,9.50
2019-05-19T00:08:01.092Z,10.08
2019-05-19T00:10:28.536Z,9.15
2019-05-19T00:12:55.940Z,9.85
2019-05-19T00:15:23.270Z,10.20
2019-05-19T00:17:50.682Z,9.00
2019-05-19T00:20:19.304Z,8.68
2019-05-19T00:22:46.748Z,8.28
2019-05-19T00:25:14.148Z,9.28
2019-05-19T00:27:41.586Z,9.88
2019-05-19T00:30:09.484Z,10.60
2019-05-19T00:32:36.902Z,10.57
2019-05-19T00:35:04.673Z,10.13
2019-05-19T00:37:32.751Z,10.88
2019-05-19T00:40:00.387Z,10.90
2019-05-19T00:42:27.979Z,10.43
2019-05-19T00:44:55.724Z,10.65
2019-05-19T00:47:23.479Z,10.63
2019-05-19T00:49:50.840Z,10.07
2019-05-19T00:52:18.532Z,11.12
2019-05-19T00:54:45.937Z,10.88
2019-05-19T00:57:13.596Z,11.25
2019-05-19T00:59:41.532Z,10.13
2019-05-19T01:02:09.563Z,10.38
2019-05-19T01:04:36.979Z,10.68
2019-05-19T01:07:04.581Z,9.97
2019-05-19T01:09:32.386Z,10.95
2019-05-19T01:11:59.695Z,13.60
2019-05-19T01:14:26.991Z,13.48
2019-05-19T01:16:54.397Z,12.93
2019-05-19T01:19:21.764Z,13.48
2019-05-19T01:21:50.161Z,12.45
2019-05-19T01:24:17.525Z,10.87
2019-05-19T01:26:45.358Z,10.53
2019-05-19T01:29:12.848Z,9.90
2019-05-19T01:31:40.841Z,9.65
2019-05-19T01:34:08.161Z,9.23
2019-05-19T01:36:35.913Z,8.83
2019-05-19T01:39:04.914Z,8.75
2019-05-19T01:41:32.662Z,11.43
2019-05-19T01:44:00.168Z,10.60
2019-05-19T01:46:27.904Z,11.57
2019-05-19T01:48:55.371Z,11.20
2019-05-19T01:51:22.761Z,9.93
2019-05-19T01:53:50.115Z,10.57
2019-05-19T01:56:17.586Z,9.70
2019-05-19T01:58:44.917Z,9.67
2019-05-19T02:01:12.329Z,9.17
2019-05-19T02:03:40.046Z,9.10
2019-05-19T02:06:07.397Z,9.43
2019-05-19T02:08:34.807Z,9.30
2019-05-19T02:11:02.654Z,10.40
2019-05-19T02:13:30.007Z,10.00
2019-05-19T02:15:57.588Z,10.27
2019-05-19T02:18:25.005Z,9.63
2019-05-19T02:20:52.340Z,10.33
2019-05-19T02:23:19.760Z,9.67
2019-05-19T02:25:47.056Z,10.80
2019-05-19T02:28:14.490Z,9.60
2019-05-19T02:30:42.135Z,10.20
2019-05-19T02:33:09.622Z,9.05
2019-05-19T02:35:37.089Z,10.00
2019-05-19T02:38:04.600Z,9.73
2019-05-19T02:40:34.822Z,9.57
2019-05-19T02:43:02.859Z,8.70
2019-05-19T02:45:32.988Z,9.43
2019-05-19T02:48:02.852Z,8.65
2019-05-19T02:50:31.299Z,8.15
2019-05-19T02:53:00.388Z,8.50
2019-05-19T02:55:28.738Z,8.80
2019-05-19T02:57:57.716Z,9.30
2019-05-19T03:00:36.209Z,8.50
2019-05-19T03:03:03.731Z,9.30
2019-05-19T03:05:31.378Z,8.40
2019-05-19T03:07:58.766Z,7.60
2019-05-19T03:10:26.432Z,8.67
2019-05-19T03:12:53.867Z,8.90
2019-05-19T03:15:21.378Z,8.58
2019-05-19T03:17:49.334Z,8.87
2019-05-19T03:20:17.118Z,8.63
2019-05-19T03:22:44.572Z,10.73
2019-05-19T03:25:12.299Z,9.87
2019-05-19T03:27:40.063Z,9.70
2019-05-19T03:30:45.767Z,8.90
2019-05-19T03:33:15.134Z,8.83
2019-05-19T03:35:43.181Z,8.40
2019-05-19T03:38:10.588Z,9.20
2019-05-19T03:40:38.419Z,9.50
2019-05-19T03:43:05.938Z,8.37
2019-05-19T03:45:33.677Z,8.40
2019-05-19T03:48:01.644Z,7.80
2019-05-19T03:50:29.154Z,7.50
2019-05-19T03:52:56.646Z,7.57
2019-05-19T03:55:24.087Z,7.90
2019-05-19T03:57:51.554Z,7.80
2019-05-19T04:00:18.976Z,7.53
2019-05-19T04:02:46.875Z,8.10
2019-05-19T04:05:14.581Z,7.60
2019-05-19T04:07:42.216Z,8.53
2019-05-19T04:10:10.137Z,8.40
2019-05-19T04:12:37.895Z,8.30
2019-05-19T04:15:06.012Z,7.25
2019-05-19T04:17:33.294Z,7.50
2019-05-19T04:20:01.185Z,14.77
2019-05-19T04:22:28.545Z,10.53
2019-05-19T04:24:56.475Z,9.00
2019-05-19T04:27:23.901Z,7.30
2019-05-19T04:29:51.535Z,7.47
2019-05-19T04:32:18.979Z,7.50
2019-05-19T04:34:46.474Z,7.47
2019-05-19T04:37:14.373Z,7.42
2019-05-19T04:39:41.793Z,7.55
2019-05-19T04:42:09.369Z,8.10
2019-05-19T04:44:36.831Z,7.72
2019-05-19T04:47:04.348Z,7.65
2019-05-19T04:49:31.692Z,8.03
2019-05-19T04:52:06.578Z,8.28
2019-05-19T04:54:29.211Z,8.08
2019-05-19T04:56:56.734Z,8.20
2019-05-19T04:59:24.221Z,7.92
2019-05-19T05:01:51.683Z,7.97
2019-05-19T05:04:19.201Z,8.20
2019-05-19T05:06:46.918Z,8.35
2019-05-19T05:09:14.713Z,8.60
2019-05-19T05:11:44.841Z,7.78
2019-05-19T05:14:12.194Z,7.45
2019-05-19T05:16:39.621Z,8.45
2019-05-19T05:19:08.842Z,7.92
2019-05-19T05:21:36.596Z,8.08
2019-05-19T05:24:04.101Z,8.35
2019-05-19T05:26:31.519Z,8.65
2019-05-19T05:28:58.897Z,8.28
2019-05-19T05:31:26.300Z,9.25
2019-05-19T05:33:53.629Z,9.65
2019-05-19T05:36:21.000Z,9.38
2019-05-19T05:38:48.305Z,8.80
2019-05-19T05:41:15.741Z,8.88
2019-05-19T05:43:43.356Z,8.88
2019-05-19T05:46:11.480Z,8.75
2019-05-19T05:48:39.279Z,8.70
2019-05-19T05:51:06.689Z,9.40
2019-05-19T05:53:34.015Z,10.10
2019-05-19T05:56:01.548Z,10.00
2019-05-19T05:58:29.223Z,9.48
2019-05-19T06:00:56.993Z,10.28
2019-05-19T06:03:24.616Z,9.70
2019-05-19T06:05:51.921Z,9.75
2019-05-19T06:08:19.660Z,10.13
2019-05-19T06:10:47.632Z,10.32
2019-05-19T06:13:15.650Z,10.78
2019-05-19T06:15:43.017Z,10.23
2019-05-19T06:18:10.453Z,10.78
2019-05-19T06:20:37.769Z,10.43
2019-05-19T06:23:05.526Z,10.90
2019-05-19T06:25:32.817Z,11.75
2019-05-19T06:28:00.553Z,11.73
2019-05-19T06:30:28.031Z,10.93
2019-05-19T06:32:56.892Z,11.03
2019-05-19T06:35:24.693Z,12.30
2019-05-19T06:37:52.055Z,12.90
2019-05-19T06:40:19.397Z,14.07
2019-05-19T06:42:46.867Z,13.18
2019-05-19T06:45:15.357Z,13.53
2019-05-19T06:47:42.784Z,13.20
2019-05-19T06:50:11.362Z,14.03
2019-05-19T06:52:39.762Z,13.03
2019-05-19T06:55:07.410Z,14.18
2019-05-19T06:57:34.954Z,14.10
2019-05-19T07:00:02.601Z,13.43
2019-05-19T07:02:30.063Z,14.90
2019-05-19T07:04:59.604Z,13.80
2019-05-19T07:07:27.084Z,14.03
2019-05-19T07:09:58.632Z,13.88
2019-05-19T07:12:24.590Z,14.00
2019-05-19T07:14:52.182Z,12.80
2019-05-19T07:17:20.124Z,13.48
2019-05-19T07:19:47.489Z,12.82
2019-05-19T07:22:15.388Z,13.62
2019-05-19T07:24:42.731Z,12.50
2019-05-19T07:27:10.074Z,12.90
2019-05-19T07:29:37.578Z,13.20
2019-05-19T07:32:04.921Z,11.95
2019-05-19T07:34:32.327Z,12.53
2019-05-19T07:37:00.287Z,12.53
2019-05-19T07:39:27.666Z,12.88
2019-05-19T07:41:55.554Z,12.50
2019-05-19T07:44:23.374Z,12.43
2019-05-19T07:46:50.852Z,11.75
2019-05-19T07:49:18.277Z,12.60
2019-05-19T07:51:45.865Z,11.78
2019-05-19T07:54:13.728Z,13.08
2019-05-19T07:56:41.174Z,13.13
2019-05-19T07:59:08.511Z,9.88
2019-05-19T08:01:35.879Z,10.50
2019-05-19T08:04:03.244Z,10.80
2019-05-19T08:06:31.031Z,10.15
2019-05-19T08:08:58.437Z,11.45
2019-05-19T08:11:25.842Z,11.73
2019-05-19T08:13:53.528Z,11.70
2019-05-19T08:16:20.825Z,11.88
2019-05-19T08:18:48.800Z,12.28
2019-05-19T08:21:16.663Z,12.13
2019-05-19T08:23:59.157Z,11.63
2019-05-19T08:26:13.646Z,10.48
2019-05-19T08:28:41.397Z,9.40
2019-05-19T08:31:09.075Z,9.40
2019-05-19T08:33:36.995Z,9.25
2019-05-19T08:36:04.401Z,9.60
2019-05-19T08:38:31.744Z,9.73
2019-05-19T08:40:59.186Z,9.75
2019-05-19T08:43:26.616Z,10.60
2019-05-19T08:45:53.932Z,9.53
2019-05-19T08:48:21.628Z,9.68
2019-05-19T08:50:49.127Z,8.65
2019-05-19T08:53:16.849Z,9.40
2019-05-19T08:55:45.274Z,9.70
2019-05-19T08:58:12.822Z,9.73
2019-05-19T09:00:40.606Z,9.40
2019-05-19T09:03:07.992Z,8.70
2019-05-19T09:05:35.621Z,8.13
2019-05-19T09:08:03.430Z,6.75
2019-05-19T09:10:30.752Z,7.42
2019-05-19T09:12:58.158Z,7.60
2019-05-19T09:15:25.590Z,8.20
2019-05-19T09:17:54.302Z,7.87
2019-05-19T09:20:22.280Z,8.65
2019-05-19T09:22:49.896Z,8.50
2019-05-19T09:25:17.271Z,9.20
2019-05-19T09:27:44.870Z,8.70
2019-05-19T09:30:12.377Z,8.50
2019-05-19T09:32:39.992Z,8.88
2019-05-19T09:35:07.869Z,8.45
2019-05-19T09:37:35.302Z,9.13
2019-05-19T09:40:03.081Z,8.90
2019-05-19T09:42:30.823Z,9.03
2019-05-19T09:44:58.387Z,9.00
2019-05-19T09:47:26.237Z,7.60
2019-05-19T09:49:53.897Z,8.15
2019-05-19T09:52:32.115Z,8.83
2019-05-19T09:55:00.849Z,8.08
2019-05-19T09:57:28.316Z,8.98
2019-05-19T09:59:58.565Z,8.78
2019-05-19T10:02:26.138Z,8.48
2019-05-19T10:04:53.608Z,8.50
2019-05-19T10:07:21.495Z,8.35
2019-05-19T10:10:01.012Z,8.40
2019-05-19T10:12:28.918Z,7.87
2019-05-19T10:14:56.393Z,7.87
2019-05-19T10:17:23.853Z,8.23
2019-05-19T10:19:51.514Z,8.10
2019-05-19T10:22:18.917Z,7.30
2019-05-19T10:25:04.167Z,7.15
2019-05-19T10:27:15.995Z,7.20
2019-05-19T10:29:43.610Z,7.35
2019-05-19T10:32:11.849Z,6.90
2019-05-19T10:34:39.728Z,6.80
2019-05-19T10:37:07.172Z,6.40
2019-05-19T10:39:34.567Z,5.85
2019-05-19T10:42:03.022Z,5.90
2019-05-19T10:44:31.800Z,5.62
2019-05-19T10:47:00.027Z,5.72
2019-05-19T10:49:27.707Z,6.08
2019-05-19T10:51:55.404Z,5.55
2019-05-19T10:54:23.317Z,5.37
2019-05-19T10:56:51.128Z,5.78
2019-05-19T10:59:18.586Z,5.72
2019-05-19T11:01:45.926Z,5.67
2019-05-19T11:04:13.305Z,5.17
2019-05-19T11:06:40.576Z,5.67
2019-05-19T11:09:07.990Z,5.45
2019-05-19T11:11:35.587Z,5.92
2019-05-19T11:14:03.125Z,5.30
2019-05-19T11:16:30.485Z,5.60
2019-05-19T11:18:58.228Z,5.35
2019-05-19T11:21:25.613Z,4.85
2019-05-19T11:23:58.181Z,4.70
2019-05-19T11:26:25.788Z,4.12
2019-05-19T11:28:53.169Z,4.50
2019-05-19T11:31:20.727Z,4.00
2019-05-19T11:33:48.144Z,4.47
2019-05-19T11:36:16.008Z,5.40
2019-05-19T11:38:43.369Z,4.50
2019-05-19T11:41:10.869Z,4.55
2019-05-19T11:43:38.972Z,5.10
2019-05-19T11:46:07.244Z,5.00
2019-05-19T11:48:34.897Z,4.80
2019-05-19T11:51:02.965Z,4.85
2019-05-19T11:53:30.612Z,4.25
2019-05-19T11:56:06.188Z,4.55
2019-05-19T11:58:28.102Z,4.37
2019-05-19T12:00:55.394Z,4.67
2019-05-19T12:03:22.755Z,4.70
2019-05-19T12:05:50.112Z,5.65
2019-05-19T12:08:17.565Z,5.62
2019-05-19T12:10:44.954Z,7.28
2019-05-19T12:13:12.406Z,7.58
2019-05-19T12:15:39.706Z,6.70
2019-05-19T12:18:07.263Z,7.97
2019-05-19T12:20:34.623Z,8.70
2019-05-19T12:23:02.015Z,8.98
2019-05-19T12:25:29.415Z,9.18
2019-05-19T12:27:57.248Z,9.00
2019-05-19T12:30:24.721Z,8.35
2019-05-19T12:32:52.367Z,8.13
2019-05-19T12:35:19.881Z,8.35
2019-05-19T12:37:47.617Z,8.10
2019-05-19T12:40:15.419Z,7.70
2019-05-19T12:42:45.437Z,8.55
2019-05-19T12:45:14.019Z,8.13
2019-05-19T12:47:41.913Z,7.22
2019-05-19T12:50:10.358Z,7.87
2019-05-19T12:52:37.700Z,8.43
2019-05-19T12:55:06.128Z,8.33
2019-05-19T12:57:33.847Z,7.58
2019-05-19T13:00:01.201Z,6.95
2019-05-19T13:02:28.669Z,6.95
2019-05-19T13:05:05.008Z,8.00
2019-05-19T13:07:25.406Z,7.28
2019-05-19T13:09:52.918Z,7.85
2019-05-19T13:12:20.225Z,7.25
2019-05-19T13:14:47.908Z,7.33
2019-05-19T13:17:15.870Z,8.40
2019-05-19T13:19:43.468Z,7.05
2019-05-19T13:22:11.199Z,6.08
2019-05-19T13:24:38.973Z,6.22
2019-05-19T13:27:06.386Z,6.03
2019-05-19T13:29:33.732Z,6.05
2019-05-19T13:32:01.103Z,5.72
2019-05-19T13:34:28.517Z,6.05
2019-05-19T13:36:55.961Z,6.03
2019-05-19T13:39:23.348Z,6.08
2019-05-19T13:41:51.105Z,6.28
2019-05-19T13:44:18.816Z,6.65
2019-05-19T13:46:46.233Z,6.17
2019-05-19T13:49:13.591Z,5.95
2019-05-19T13:51:40.920Z,6.45
2019-05-19T13:54:08.381Z,5.72
2019-05-19T13:56:36.104Z,6.05
2019-05-19T13:59:03.588Z,6.20
2019-05-19T14:01:31.063Z,6.17
2019-05-19T14:03:58.361Z,5.90
2019-05-19T14:06:25.793Z,5.85
2019-05-19T14:08:53.478Z,6.42
2019-05-19T14:11:20.890Z,5.85
2019-05-19T14:13:48.331Z,5.30
2019-05-19T14:16:16.099Z,5.92
2019-05-19T14:18:43.472Z,6.55
2019-05-19T14:21:10.815Z,6.35
2019-05-19T14:23:38.383Z,6.35
2019-05-19T14:26:05.887Z,6.25
2019-05-19T14:28:33.319Z,6.50
2019-05-19T14:31:00.759Z,6.45
2019-05-19T14:33:28.175Z,6.35
2019-05-19T14:35:55.712Z,6.22
2019-05-19T14:38:23.090Z,6.55
2019-05-19T14:40:50.572Z,5.92
2019-05-19T14:43:18.928Z,6.08
2019-05-19T14:45:46.199Z,6.30
2019-05-19T14:48:13.609Z,6.20
2019-05-19T14:50:41.094Z,6.92
2019-05-19T14:53:08.721Z,6.03
2019-05-19T14:55:36.034Z,6.25
2019-05-19T14:58:03.298Z,6.08
2019-05-19T15:00:30.682Z,6.08
2019-05-19T15:02:58.126Z,5.72
2019-05-19T15:05:25.897Z,6.25
2019-05-19T15:07:53.586Z,5.97
2019-05-19T15:10:21.172Z,6.37
2019-05-19T15:12:48.543Z,5.65
2019-05-19T15:15:15.948Z,6.53
2019-05-19T15:17:43.639Z,6.12
2019-05-19T15:20:11.885Z,6.30
2019-05-19T15:22:39.466Z,6.30
2019-05-19T15:25:07.673Z,6.35
2019-05-19T15:27:35.624Z,5.92
2019-05-19T15:30:12.189Z,6.33
2019-05-19T15:32:33.131Z,6.00
2019-05-19T15:35:00.453Z,6.10
2019-05-19T15:37:28.369Z,6.15
2019-05-19T15:39:56.186Z,5.70
2019-05-19T15:42:23.617Z,6.05
2019-05-19T15:44:54.562Z,6.20
2019-05-19T15:47:22.410Z,5.90
2019-05-19T15:49:50.238Z,6.30
2019-05-19T15:52:17.708Z,6.10
2019-05-19T15:54:45.098Z,6.67
2019-05-19T15:57:12.603Z,6.12
2019-05-19T15:59:40.104Z,6.55
2019-05-19T16:02:08.169Z,6.22
2019-05-19T16:04:35.709Z,6.65
2019-05-19T16:07:03.290Z,6.45
2019-05-19T16:12:02.047Z,6.30
2019-05-19T16:14:29.532Z,6.45
2019-05-19T16:16:56.911Z,6.62
2019-05-19T16:19:24.320Z,6.72
2019-05-19T16:21:52.180Z,6.58
2019-05-19T16:24:19.629Z,6.62
2019-05-19T16:26:47.075Z,6.50
2019-05-19T16:29:14.760Z,6.95
2019-05-19T16:31:42.312Z,7.20
2019-05-19T16:34:10.642Z,6.42
2019-05-19T16:36:38.057Z,6.53
2019-05-19T16:39:06.242Z,6.25
2019-05-19T16:41:33.926Z,6.35
2019-05-19T16:44:01.700Z,6.47
2019-05-19T16:46:29.227Z,6.50
2019-05-19T16:48:57.497Z,5.87
2019-05-19T16:51:26.509Z,6.45
2019-05-19T16:53:56.220Z,6.20
2019-05-19T16:56:24.232Z,6.62
2019-05-19T16:58:51.763Z,7.33
2019-05-19T17:01:20.166Z,7.87
2019-05-19T17:03:47.579Z,9.13
2019-05-19T17:06:15.353Z,7.17
2019-05-19T17:08:43.110Z,6.30
2019-05-19T17:11:18.465Z,9.43
2019-05-19T17:13:41.162Z,10.48
2019-05-19T17:16:08.646Z,11.70
2019-05-19T17:18:36.737Z,10.35
2019-05-19T17:21:04.222Z,9.93
2019-05-19T17:23:31.866Z,11.28
2019-05-19T17:25:59.663Z,11.73
2019-05-19T17:28:26.970Z,9.60
2019-05-19T17:30:55.176Z,10.00
2019-05-19T17:33:22.576Z,14.80
2019-05-19T17:35:50.338Z,15.45
2019-05-19T17:38:18.041Z,12.70
2019-05-19T17:40:45.546Z,13.13
2019-05-19T17:43:13.554Z,14.33
2019-05-19T17:45:41.287Z,13.48
2019-05-19T17:48:18.767Z,12.53
2019-05-19T17:50:39.087Z,29.48
2019-05-19T17:53:06.535Z,11.93
2019-05-19T17:55:35.232Z,16.55
2019-05-19T17:58:03.057Z,12.95
2019-05-19T18:00:35.782Z,10.95
2019-05-19T18:03:04.322Z,9.80
2019-05-19T18:05:31.840Z,22.52
2019-05-19T18:07:59.245Z,15.40
2019-05-19T18:10:26.738Z,9.25
2019-05-19T18:12:54.195Z,11.35
2019-05-19T18:15:21.542Z,8.80
2019-05-19T18:17:49.633Z,15.78
2019-05-19T18:20:23.738Z,22.70
2019-05-19T18:22:46.391Z,18.10
2019-05-19T18:25:13.785Z,13.43
2019-05-19T18:27:41.415Z,10.45
2019-05-19T18:30:09.238Z,11.00
2019-05-19T18:32:36.916Z,12.30
2019-05-19T18:35:04.290Z,9.95
2019-05-19T18:37:31.711Z,9.78
2019-05-19T18:39:59.537Z,9.53
2019-05-19T18:42:27.174Z,9.23
2019-05-19T18:44:54.689Z,15.35
2019-05-19T18:47:22.180Z,11.33
2019-05-19T18:49:49.588Z,12.75
2019-05-19T18:52:17.466Z,11.65
2019-05-19T18:54:45.223Z,9.35
2019-05-19T18:57:12.636Z,8.55
2019-05-19T18:59:47.532Z,9.23
2019-05-19T19:02:10.518Z,9.03
2019-05-19T19:04:37.888Z,9.15
2019-05-19T19:07:06.105Z,9.78
2019-05-19T19:09:34.172Z,9.95
2019-05-19T19:12:01.536Z,9.68
2019-05-19T19:14:29.902Z,10.45
2019-05-19T19:16:57.681Z,10.08
2019-05-19T19:19:25.244Z,9.80
2019-05-19T19:21:53.115Z,9.48
2019-05-19T19:24:20.612Z,11.18
2019-05-19T19:26:48.242Z,14.35
2019-05-19T19:29:15.628Z,11.10
2019-05-19T19:31:48.589Z,10.03
2019-05-19T19:34:13.015Z,8.78
2019-05-19T19:36:40.766Z,9.55
2019-05-19T19:39:08.386Z,9.60
2019-05-19T19:41:36.007Z,10.43
2019-05-19T19:44:03.808Z,10.70
2019-05-19T19:46:31.216Z,10.00
2019-05-19T19:48:59.144Z,10.30
2019-05-19T19:51:26.874Z,10.25
2019-05-19T19:53:54.254Z,10.35
2019-05-19T19:56:22.268Z,9.98
2019-05-19T19:59:08.443Z,10.00
2019-05-19T20:01:59.920Z,9.70
2019-05-19T20:04:27.772Z,9.88
2019-05-19T20:06:55.201Z,10.30
2019-05-19T20:09:22.517Z,9.53
2019-05-19T20:11:50.042Z,9.70
2019-05-19T20:14:17.504Z,9.05
2019-05-19T20:16:45.102Z,10.25
2019-05-19T20:19:12.447Z,10.20
2019-05-19T20:21:40.228Z,10.43
2019-05-19T20:24:07.711Z,9.65
2019-05-19T20:26:35.078Z,9.30
2019-05-19T20:29:02.566Z,10.32
2019-05-19T20:31:31.553Z,9.95
2019-05-19T20:33:59.444Z,9.23
2019-05-19T20:36:26.856Z,10.20
2019-05-19T20:38:54.546Z,9.90
2019-05-19T20:41:21.873Z,10.38
2019-05-19T20:43:49.357Z,10.13
2019-05-19T20:46:16.773Z,10.05
2019-05-19T20:48:44.925Z,11.05
2019-05-19T20:51:12.382Z,10.95
2019-05-19T20:53:39.812Z,10.95
2019-05-19T20:56:07.249Z,11.38
2019-05-19T20:58:34.719Z,10.93
2019-05-19T21:01:02.421Z,11.85
2019-05-19T21:03:30.462Z,10.55
2019-05-19T21:05:57.901Z,11.93
2019-05-19T21:08:25.272Z,11.83
2019-05-19T21:10:52.817Z,11.75
2019-05-19T21:13:20.298Z,12.45
2019-05-19T21:15:47.876Z,11.45
2019-05-19T21:18:15.249Z,12.13
2019-05-19T21:20:42.727Z,12.43
2019-05-19T21:23:10.429Z,12.47
2019-05-19T21:25:37.808Z,13.18
2019-05-19T21:28:05.535Z,13.80
2019-05-19T21:30:32.933Z,14.07
2019-05-19T21:33:00.369Z,15.18
2019-05-19T21:35:27.763Z,14.15
2019-05-19T21:37:55.131Z,13.83
2019-05-19T21:40:22.541Z,13.13
2019-05-19T21:42:49.995Z,12.82
2019-05-19T21:45:17.613Z,13.35
2019-05-19T21:47:44.961Z,14.07
2019-05-19T21:50:12.556Z,13.43
2019-05-19T21:52:39.856Z,15.10
2019-05-19T21:55:07.395Z,14.28
2019-05-19T21:57:35.158Z,13.65
2019-05-19T22:00:02.956Z,13.50
2019-05-19T22:02:30.243Z,13.58
2019-05-19T22:04:57.539Z,12.80
2019-05-19T22:07:50.422Z,12.23
2019-05-19T22:10:17.824Z,12.10
2019-05-19T22:12:45.981Z,11.57
2019-05-19T22:15:13.508Z,12.60
2019-05-19T22:17:40.834Z,14.20
2019-05-19T22:20:08.386Z,14.18
2019-05-19T22:22:36.045Z,13.25
2019-05-19T22:25:03.726Z,13.38
2019-05-19T22:27:31.519Z,13.83
2019-05-19T22:29:58.859Z,15.23
2019-05-19T22:32:26.205Z,14.93
2019-05-19T22:34:53.625Z,15.03
2019-05-19T22:37:21.139Z,13.20
2019-05-19T22:39:48.949Z,12.63
2019-05-19T22:42:16.611Z,10.70
2019-05-19T22:44:44.791Z,10.40
2019-05-19T22:47:12.199Z,11.22
2019-05-19T22:49:39.576Z,12.35
2019-05-19T22:52:07.005Z,11.93
2019-05-19T22:54:34.722Z,14.15
2019-05-19T22:57:02.704Z,14.95
2019-05-19T22:59:30.029Z,15.80
2019-05-19T23:01:57.439Z,16.90
2019-05-19T23:04:24.926Z,16.87
2019-05-19T23:06:52.813Z,15.45
2019-05-19T23:09:20.499Z,14.63
2019-05-19T23:11:47.887Z,13.32
2019-05-19T23:14:15.905Z,14.35
2019-05-19T23:16:43.986Z,14.53
2019-05-19T23:19:11.660Z,14.03
2019-05-19T23:21:39.449Z,14.93
2019-05-19T23:24:06.777Z,15.55
2019-05-19T23:26:34.470Z,15.13
2019-05-19T23:29:01.790Z,14.87
2019-05-19T23:31:29.197Z,14.68
2019-05-19T23:33:56.699Z,13.62
2019-05-19T23:36:24.038Z,13.83
2019-05-19T23:38:51.528Z,13.30
2019-05-19T23:41:18.965Z,13.55
2019-05-19T23:43:46.288Z,13.38
2019-05-19T23:46:13.726Z,12.13
2019-05-19T23:48:41.658Z,11.88
2019-05-19T23:51:09.567Z,11.30
2019-05-19T23:53:36.945Z,10.95
2019-05-19T23:56:05.268Z,11.30
2019-05-19T23:58:32.632Z,11.45
